Tonka Bay, Minnesota
Current Conditions -  °F | °C
As of 3:53 PM on Friday 31 Oct 2014 (Local Time) from KFCM Reporting Station
Clear Clear  
Wind Chill: 36°   Ceiling: Unl
Heat Index: 40°   Visibility: 10mi
Dew Point: 16°   Wind: 6mph
Humidity: 38%   Direction: 20°NNE
Pressure: 30.49"   Gusts: NA
Location:  44.8924°N, 93.5895°W
Report Text: KFCM 312053Z 02005KT 10SM CLR 04/M09 A3049 RMK AO2 SLP336 T00441089 56017
Loading
Personal Weather Stations






























Interactive Weather Map
Tropical Storm Tracking
New forecast layout! Learn more

10-Day Weather Forecast

Advertisements
Track Severe Weather on mobile